createdAt,value
2022-08-14T00:02:27.298Z,3.88
2022-08-14T00:04:56.389Z,2.50
2022-08-14T00:07:26.359Z,3.78
2022-08-14T00:10:50.257Z,3.05
2022-08-14T00:12:56.307Z,2.75
2022-08-14T00:15:43.579Z,2.75
2022-08-14T00:18:30.939Z,2.17
2022-08-14T00:21:04.915Z,2.20
2022-08-14T00:23:40.253Z,3.40
2022-08-14T00:26:21.648Z,4.35
2022-08-14T00:28:53.472Z,3.88
2022-08-14T00:31:23.115Z,2.42
2022-08-14T00:34:36.120Z,2.80
2022-08-14T00:36:51.846Z,5.90
2022-08-14T00:39:21.776Z,2.55
2022-08-14T00:41:50.106Z,2.85
2022-08-14T00:44:27.518Z,3.70
2022-08-14T00:47:10.868Z,3.33
2022-08-14T00:49:42.978Z,4.25
2022-08-14T00:52:18.150Z,5.65
2022-08-14T00:54:58.089Z,3.97
2022-08-14T00:57:31.392Z,7.68
2022-08-14T01:00:02.266Z,2.30
2022-08-14T01:02:31.871Z,6.20
2022-08-14T01:05:01.451Z,5.57
2022-08-14T01:07:38.841Z,2.65
2022-08-14T01:13:03.888Z,5.72
2022-08-14T01:15:58.461Z,2.15
2022-08-14T01:18:40.028Z,5.70
2022-08-14T01:21:17.398Z,6.13
2022-08-14T01:23:53.912Z,5.35
2022-08-14T01:26:35.157Z,6.57
2022-08-14T01:29:07.222Z,6.68
2022-08-14T01:31:55.414Z,5.20
2022-08-14T01:35:20.041Z,8.30
2022-08-14T01:37:16.516Z,5.88
2022-08-14T01:39:47.168Z,4.75
2022-08-14T01:42:31.044Z,6.25
2022-08-14T01:45:00.737Z,6.90
2022-08-14T01:47:37.086Z,6.00
2022-08-14T01:50:08.061Z,8.35
2022-08-14T01:52:58.743Z,6.50
2022-08-14T01:55:32.476Z,5.15
2022-08-14T01:58:20.157Z,5.22
2022-08-14T02:00:55.716Z,2.80
2022-08-14T02:03:30.870Z,3.67
2022-08-14T02:06:04.153Z,6.60
2022-08-14T02:08:53.234Z,2.78
2022-08-14T02:11:29.105Z,3.97
2022-08-14T02:14:07.928Z,2.95
2022-08-14T02:16:41.539Z,6.28
2022-08-14T02:19:14.977Z,2.63
2022-08-14T02:24:39.554Z,3.13
2022-08-14T02:28:24.608Z,5.43
2022-08-14T02:30:02.686Z,3.45
2022-08-14T02:32:37.256Z,2.63
2022-08-14T02:35:11.518Z,3.92
2022-08-14T02:37:48.014Z,3.28
2022-08-14T02:40:32.548Z,4.13
2022-08-14T02:43:03.838Z,3.17
2022-08-14T02:45:38.842Z,3.45
2022-08-14T02:49:03.760Z,7.70
2022-08-14T02:51:07.233Z,4.05
2022-08-14T02:53:45.477Z,2.88
2022-08-14T02:56:30.515Z,5.63
2022-08-14T02:59:08.225Z,3.75
2022-08-14T03:01:50.546Z,2.63
2022-08-14T03:04:20.586Z,3.28
2022-08-14T03:07:06.705Z,3.67
2022-08-14T03:10:27.041Z,2.53
2022-08-14T03:12:32.863Z,2.78
2022-08-14T03:15:14.170Z,6.00
2022-08-14T03:20:30.338Z,2.50
2022-08-14T03:23:03.043Z,2.88
2022-08-14T03:25:37.786Z,6.32
2022-08-14T03:28:14.932Z,6.93
2022-08-14T03:31:00.114Z,4.30
2022-08-14T03:33:37.890Z,4.50
2022-08-14T03:39:09.188Z,3.67
2022-08-14T03:39:12.878Z,3.13
2022-08-14T03:41:44.497Z,5.00
2022-08-14T03:45:28.012Z,3.85
2022-08-14T03:47:03.196Z,3.33
2022-08-14T03:49:34.352Z,3.13
2022-08-14T03:52:18.187Z,4.07
2022-08-14T03:54:55.640Z,5.95
2022-08-14T03:57:24.422Z,4.40
2022-08-14T03:59:52.636Z,3.05
2022-08-14T04:02:33.122Z,4.63
2022-08-14T04:05:12.797Z,2.65
2022-08-14T04:07:49.652Z,3.50
2022-08-14T04:10:31.864Z,2.42
2022-08-14T04:13:06.166Z,7.50
2022-08-14T04:15:56.077Z,2.97
2022-08-14T04:18:23.540Z,3.70
2022-08-14T04:20:54.347Z,3.17
2022-08-14T04:23:29.814Z,5.53
2022-08-14T04:26:08.064Z,2.60
2022-08-14T04:29:01.962Z,2.63
2022-08-14T04:33:10.695Z,3.53
2022-08-14T04:34:20.905Z,2.83
2022-08-14T04:37:11.220Z,6.57
2022-08-14T04:39:58.171Z,4.25
2022-08-14T04:42:47.138Z,2.92
2022-08-14T04:45:41.367Z,3.58
2022-08-14T04:48:39.345Z,3.15
2022-08-14T04:51:11.467Z,3.97
2022-08-14T04:53:43.714Z,3.05
2022-08-14T04:56:30.456Z,6.40
2022-08-14T04:59:10.679Z,4.90
2022-08-14T05:01:49.802Z,2.35
2022-08-14T05:04:21.171Z,4.53
2022-08-14T05:06:56.251Z,2.25
2022-08-14T05:09:29.298Z,2.67
2022-08-14T05:12:58.506Z,3.67
2022-08-14T05:14:54.841Z,5.00
2022-08-14T05:17:32.240Z,2.97
2022-08-14T05:21:54.942Z,2.65
2022-08-14T05:23:04.191Z,2.10
2022-08-14T05:25:34.257Z,3.35
2022-08-14T05:28:23.038Z,2.85
2022-08-14T05:31:01.774Z,4.13
2022-08-14T05:33:33.188Z,4.95
2022-08-14T05:36:06.224Z,9.52
2022-08-14T05:38:47.398Z,9.30
2022-08-14T05:41:20.203Z,9.52
2022-08-14T05:43:51.180Z,9.85
2022-08-14T05:46:26.295Z,9.23
2022-08-14T05:48:57.457Z,8.63
2022-08-14T05:51:27.362Z,10.63
2022-08-14T05:54:01.549Z,9.85
2022-08-14T05:56:41.407Z,9.82
2022-08-14T05:59:10.493Z,7.50
2022-08-14T06:01:39.387Z,7.38
2022-08-14T06:04:07.617Z,8.25
2022-08-14T06:06:38.444Z,4.22
2022-08-14T06:09:09.734Z,6.50
2022-08-14T06:11:38.454Z,7.78
2022-08-14T06:14:20.979Z,4.05
2022-08-14T06:16:54.813Z,7.43
2022-08-14T06:19:23.564Z,4.22
2022-08-14T06:21:59.063Z,3.70
2022-08-14T06:24:30.501Z,3.88
2022-08-14T06:27:06.454Z,4.85
2022-08-14T06:29:39.241Z,3.40
2022-08-14T06:32:36.941Z,3.78
2022-08-14T06:35:02.225Z,4.10
2022-08-14T06:37:52.544Z,4.15
2022-08-14T06:40:27.154Z,7.80
2022-08-14T06:43:00.567Z,3.35
2022-08-14T06:45:33.560Z,3.50
2022-08-14T06:48:02.791Z,5.18
2022-08-14T06:50:34.628Z,4.70
2022-08-14T06:53:02.814Z,3.60
2022-08-14T06:55:33.860Z,3.70
2022-08-14T06:58:05.875Z,4.53
2022-08-14T07:01:11.691Z,3.85
2022-08-14T07:03:59.198Z,3.72
2022-08-14T07:06:46.679Z,4.97
2022-08-14T07:09:22.416Z,4.05
2022-08-14T07:11:52.833Z,3.03
2022-08-14T07:14:23.947Z,4.38
2022-08-14T07:16:52.361Z,6.05
2022-08-14T07:19:21.093Z,2.88
2022-08-14T07:21:50.279Z,2.88
2022-08-14T07:24:26.428Z,4.57
2022-08-14T07:26:59.880Z,5.50
2022-08-14T07:29:28.836Z,5.40
2022-08-14T07:31:57.540Z,4.80
2022-08-14T07:34:35.977Z,5.90
2022-08-14T07:37:05.863Z,3.75
2022-08-14T07:39:34.579Z,5.00
2022-08-14T07:42:03.556Z,1.88
2022-08-14T07:44:45.878Z,2.17
2022-08-14T07:47:16.552Z,3.53
2022-08-14T07:49:56.982Z,4.53
2022-08-14T07:52:30.266Z,3.28
2022-08-14T07:55:01.437Z,2.80
2022-08-14T07:57:29.641Z,3.97
2022-08-14T07:59:57.950Z,2.70
2022-08-14T08:02:32.635Z,5.10
2022-08-14T08:05:05.450Z,6.28
2022-08-14T08:07:34.272Z,3.78
2022-08-14T08:10:31.402Z,2.35
2022-08-14T08:13:24.473Z,3.63
2022-08-14T08:15:56.713Z,2.10
2022-08-14T08:18:29.237Z,2.63
2022-08-14T08:21:00.252Z,3.63
2022-08-14T08:23:43.608Z,2.60
2022-08-14T08:26:18.798Z,3.33
2022-08-14T08:28:59.139Z,2.45
2022-08-14T08:31:32.989Z,3.85
2022-08-14T08:34:06.483Z,2.47
2022-08-14T08:36:42.045Z,2.25
2022-08-14T08:39:22.057Z,2.40
2022-08-14T08:41:53.770Z,4.00
2022-08-14T08:44:31.613Z,3.38
2022-08-14T08:47:07.840Z,4.10
2022-08-14T08:49:52.685Z,2.95
2022-08-14T08:52:32.118Z,3.65
2022-08-14T08:55:04.899Z,3.40
2022-08-14T08:57:37.906Z,2.30
2022-08-14T09:00:25.243Z,2.50
2022-08-14T09:03:10.015Z,2.75
2022-08-14T09:05:54.082Z,2.97
2022-08-14T09:08:31.528Z,3.33
2022-08-14T09:11:18.890Z,3.63
2022-08-14T09:13:51.613Z,2.88
2022-08-14T09:16:26.102Z,2.08
2022-08-14T09:18:57.519Z,2.80
2022-08-14T09:21:31.068Z,6.57
2022-08-14T09:24:28.678Z,2.20
2022-08-14T09:26:50.069Z,3.72
2022-08-14T09:29:22.719Z,2.13
2022-08-14T09:31:57.553Z,2.50
2022-08-14T09:34:59.123Z,4.18
2022-08-14T09:37:34.172Z,2.88
2022-08-14T09:40:29.472Z,4.68
2022-08-14T09:43:06.314Z,2.97
2022-08-14T09:45:52.462Z,2.20
2022-08-14T09:48:30.587Z,2.53
2022-08-14T09:54:18.257Z,3.15
2022-08-14T09:56:51.687Z,2.75
2022-08-14T09:59:27.969Z,4.63
2022-08-14T10:01:57.456Z,4.13
2022-08-14T10:04:33.078Z,2.83
2022-08-14T10:07:08.576Z,2.13
2022-08-14T10:10:00.234Z,2.13
2022-08-14T10:12:53.193Z,2.13
2022-08-14T10:15:26.404Z,2.97
2022-08-14T10:18:18.468Z,4.82
2022-08-14T10:21:00.898Z,3.40
2022-08-14T10:23:43.087Z,13.35
2022-08-14T10:26:23.108Z,6.30
2022-08-14T10:29:19.253Z,2.40
2022-08-14T10:31:59.448Z,3.92
2022-08-14T10:34:36.965Z,5.68
2022-08-14T10:37:15.093Z,2.42
2022-08-14T10:39:51.290Z,2.20
2022-08-14T10:42:39.037Z,3.20
2022-08-14T10:45:22.262Z,3.30
2022-08-14T10:50:49.304Z,2.25
2022-08-14T10:53:29.294Z,5.63
2022-08-14T10:56:06.840Z,3.08
2022-08-14T10:59:00.108Z,2.40
2022-08-14T11:01:38.477Z,4.28
2022-08-14T11:04:25.848Z,2.45
2022-08-14T11:06:56.867Z,2.30
2022-08-14T11:09:26.194Z,2.42
2022-08-14T11:12:35.104Z,2.22
2022-08-14T11:15:01.914Z,2.00
2022-08-14T11:17:36.231Z,1.77
2022-08-14T11:20:13.879Z,2.70
2022-08-14T11:22:55.915Z,2.72
2022-08-14T11:25:43.598Z,3.15
2022-08-14T11:28:19.145Z,3.17
2022-08-14T11:30:53.768Z,1.83
2022-08-14T11:33:31.110Z,2.30
2022-08-14T11:36:02.419Z,2.75
2022-08-14T11:38:44.916Z,2.95
2022-08-14T11:41:17.090Z,5.75
2022-08-14T11:43:56.046Z,2.63
2022-08-14T11:46:30.679Z,2.70
2022-08-14T11:49:06.540Z,2.10
2022-08-14T11:51:54.282Z,2.22
2022-08-14T11:54:34.986Z,3.88
2022-08-14T11:57:05.178Z,4.25
2022-08-14T11:59:34.185Z,2.83
2022-08-14T12:03:03.319Z,2.15
2022-08-14T12:05:09.376Z,2.08
2022-08-14T12:07:49.651Z,3.60
2022-08-14T12:10:27.145Z,1.88
2022-08-14T12:13:14.027Z,4.35
2022-08-14T12:15:59.067Z,2.42
2022-08-14T12:18:35.988Z,2.15
2022-08-14T12:21:19.115Z,3.67
2022-08-14T12:24:00.505Z,3.10
2022-08-14T12:26:39.378Z,1.70
2022-08-14T12:29:14.489Z,4.07
2022-08-14T12:31:47.117Z,4.18
2022-08-14T12:34:20.399Z,3.17
2022-08-14T12:37:02.420Z,2.30
2022-08-14T12:39:30.667Z,1.90
2022-08-14T12:42:11.835Z,2.83
2022-08-14T12:44:58.685Z,3.65
2022-08-14T12:47:31.329Z,7.30
2022-08-14T12:52:43.177Z,5.82
2022-08-14T12:55:22.267Z,2.92
2022-08-14T12:57:53.499Z,3.00
2022-08-14T13:00:25.448Z,3.58
2022-08-14T13:02:56.642Z,2.00
2022-08-14T13:05:29.109Z,3.88
2022-08-14T13:07:59.681Z,3.30
2022-08-14T13:10:47.102Z,1.98
2022-08-14T13:13:20.596Z,3.70
2022-08-14T13:15:55.937Z,4.20
2022-08-14T13:18:28.065Z,4.93
2022-08-14T13:21:01.025Z,3.10
2022-08-14T13:23:36.386Z,3.10
2022-08-14T13:26:06.898Z,2.50
2022-08-14T13:29:00.548Z,2.05
2022-08-14T13:31:34.349Z,3.38
2022-08-14T13:34:05.380Z,2.80
2022-08-14T13:36:54.454Z,1.90
2022-08-14T13:39:24.551Z,2.17
2022-08-14T13:41:55.602Z,3.20
2022-08-14T13:44:27.619Z,3.88
2022-08-14T13:46:55.879Z,1.98
2022-08-14T13:49:24.470Z,2.40
2022-08-14T13:51:58.547Z,2.88
2022-08-14T13:54:31.176Z,1.83
2022-08-14T13:57:03.639Z,2.55
2022-08-14T13:59:38.002Z,1.85
2022-08-14T14:02:08.737Z,6.47
2022-08-14T14:04:46.181Z,2.13
2022-08-14T14:07:24.107Z,1.83
2022-08-14T14:10:08.235Z,2.45
2022-08-14T14:12:41.426Z,1.90
2022-08-14T14:17:47.852Z,3.28
2022-08-14T14:20:35.108Z,2.90
2022-08-14T14:23:11.765Z,1.73
2022-08-14T14:25:46.127Z,3.95
2022-08-14T14:28:24.591Z,2.33
2022-08-14T14:30:57.437Z,3.15
2022-08-14T14:33:49.537Z,2.20
2022-08-14T14:36:25.022Z,5.18
2022-08-14T14:38:58.187Z,2.50
2022-08-14T14:41:38.042Z,4.80
2022-08-14T14:44:09.528Z,1.73
2022-08-14T14:46:50.823Z,2.40
2022-08-14T14:49:21.913Z,1.65
2022-08-14T14:51:51.537Z,1.70
2022-08-14T14:54:31.143Z,2.30
2022-08-14T14:57:02.499Z,1.58
2022-08-14T14:59:33.468Z,1.63
2022-08-14T15:02:07.773Z,1.63
2022-08-14T15:04:38.705Z,4.43
2022-08-14T15:07:12.631Z,1.77
2022-08-14T15:09:41.427Z,2.80
2022-08-14T15:12:34.619Z,1.50
2022-08-14T15:15:08.957Z,1.70
2022-08-14T15:17:42.020Z,1.60
2022-08-14T15:23:00.947Z,1.23
2022-08-14T15:25:37.084Z,1.45
2022-08-14T15:28:12.596Z,1.50
2022-08-14T15:30:42.706Z,2.20
2022-08-14T15:33:14.321Z,1.85
2022-08-14T15:35:44.998Z,2.30
2022-08-14T15:38:17.616Z,6.53
2022-08-14T15:40:51.729Z,2.47
2022-08-14T15:43:27.417Z,3.15
2022-08-14T15:46:07.362Z,3.10
2022-08-14T15:48:55.811Z,3.80
2022-08-14T15:51:28.258Z,5.00
2022-08-14T15:54:02.355Z,2.58
2022-08-14T15:56:42.350Z,2.78
2022-08-14T15:59:13.274Z,2.88
2022-08-14T16:01:54.307Z,1.75
2022-08-14T16:04:23.974Z,2.30
2022-08-14T16:06:54.737Z,1.45
2022-08-14T16:09:26.955Z,3.47
2022-08-14T16:11:55.556Z,4.45
2022-08-14T16:14:24.332Z,1.60
2022-08-14T16:17:00.640Z,2.80
2022-08-14T16:19:39.828Z,2.17
2022-08-14T16:25:04.035Z,2.47
2022-08-14T16:27:41.232Z,2.03
2022-08-14T16:30:24.652Z,1.95
2022-08-14T16:32:56.965Z,1.75
2022-08-14T16:35:42.291Z,4.63
2022-08-14T16:38:45.668Z,5.72
2022-08-14T16:41:17.478Z,7.05
2022-08-14T16:43:48.619Z,2.25
2022-08-14T16:46:22.035Z,5.90
2022-08-14T16:48:57.188Z,3.80
2022-08-14T16:51:34.808Z,2.78
2022-08-14T16:54:33.769Z,2.10
2022-08-14T16:57:16.051Z,1.80
2022-08-14T16:59:57.397Z,2.63
2022-08-14T17:02:38.890Z,7.83
2022-08-14T17:05:16.832Z,4.50
2022-08-14T17:08:07.317Z,3.17
2022-08-14T17:11:02.199Z,2.60
2022-08-14T17:13:59.775Z,2.38
2022-08-14T17:16:37.183Z,2.28
2022-08-14T17:19:13.693Z,2.38
2022-08-14T17:21:46.838Z,3.90
2022-08-14T17:24:56.421Z,1.90
2022-08-14T17:27:10.373Z,3.92
2022-08-14T17:29:44.770Z,3.28
2022-08-14T17:32:29.711Z,2.58
2022-08-14T17:35:16.745Z,6.53
2022-08-14T17:37:55.628Z,3.45
2022-08-14T17:40:30.665Z,2.95
2022-08-14T17:45:50.582Z,2.67
2022-08-14T17:49:14.568Z,2.72
2022-08-14T17:51:14.628Z,2.53
2022-08-14T17:53:53.343Z,2.85
2022-08-14T17:56:31.744Z,8.05
2022-08-14T17:59:05.258Z,5.65
2022-08-14T18:01:37.831Z,4.50
2022-08-14T18:04:28.463Z,3.00
2022-08-14T18:07:08.897Z,6.07
2022-08-14T18:09:56.256Z,4.88
2022-08-14T18:12:36.686Z,3.78
2022-08-14T18:15:15.970Z,2.70
2022-08-14T18:17:53.228Z,4.35
2022-08-14T18:21:40.784Z,2.83
2022-08-14T18:23:14.491Z,2.67
2022-08-14T18:25:52.859Z,2.95
2022-08-14T18:28:51.022Z,3.00
2022-08-14T18:31:23.247Z,3.70
2022-08-14T18:33:58.919Z,4.10
2022-08-14T18:36:48.412Z,2.15
2022-08-14T18:39:25.555Z,4.55
2022-08-14T18:42:23.920Z,3.78
2022-08-14T18:44:52.789Z,3.97
2022-08-14T18:47:25.596Z,3.67
2022-08-14T18:50:00.702Z,4.22
2022-08-14T18:52:37.408Z,3.70
2022-08-14T18:55:16.059Z,3.80
2022-08-14T18:57:57.967Z,2.78
2022-08-14T19:00:32.787Z,4.13
2022-08-14T19:03:08.835Z,4.45
2022-08-14T19:05:48.907Z,2.63
2022-08-14T19:08:24.863Z,4.88
2022-08-14T19:11:04.168Z,3.00
2022-08-14T19:13:48.398Z,3.08
2022-08-14T19:16:26.105Z,4.20
2022-08-14T19:19:03.099Z,4.85
2022-08-14T19:21:38.397Z,4.55
2022-08-14T19:24:30.388Z,3.58
2022-08-14T19:27:19.319Z,5.68
2022-08-14T19:30:20.529Z,5.00
2022-08-14T19:32:56.143Z,5.63
2022-08-14T19:35:50.004Z,3.88
2022-08-14T19:38:44.434Z,3.20
2022-08-14T19:43:50.905Z,4.38
2022-08-14T19:46:38.478Z,5.75
2022-08-14T19:49:21.358Z,3.67
2022-08-14T19:51:51.700Z,3.95
2022-08-14T19:54:28.792Z,4.50
2022-08-14T19:56:59.621Z,3.88
2022-08-14T19:59:36.843Z,5.50
2022-08-14T20:02:30.325Z,4.38
2022-08-14T20:05:03.776Z,7.32
2022-08-14T20:08:00.190Z,14.70
2022-08-14T20:11:06.553Z,12.80
2022-08-14T20:13:32.095Z,10.10
2022-08-14T20:16:12.492Z,10.70
2022-08-14T20:18:51.990Z,7.47
2022-08-14T20:21:24.848Z,9.60
2022-08-14T20:24:41.264Z,8.20
2022-08-14T20:27:44.283Z,9.57
2022-08-14T20:30:34.749Z,11.55
2022-08-14T20:33:11.000Z,6.90
2022-08-14T20:35:39.940Z,8.15
2022-08-14T20:38:31.082Z,6.65
2022-08-14T20:41:10.828Z,10.02
2022-08-14T20:44:00.960Z,7.18
2022-08-14T20:49:09.386Z,7.97
2022-08-14T20:51:55.008Z,6.70
2022-08-14T20:54:34.123Z,5.53
2022-08-14T20:57:14.673Z,8.85
2022-08-14T20:59:53.595Z,6.78
2022-08-14T21:02:46.824Z,4.90
2022-08-14T21:08:08.384Z,4.22
2022-08-14T21:10:55.022Z,7.40
2022-08-14T21:14:20.508Z,7.15
2022-08-14T21:16:34.387Z,6.97
2022-08-14T21:19:04.271Z,6.30
2022-08-14T21:21:40.559Z,6.68
2022-08-14T21:24:38.829Z,5.35
2022-08-14T21:27:13.127Z,9.32
2022-08-14T21:29:54.042Z,7.57
2022-08-14T21:32:47.003Z,9.77
2022-08-14T21:35:22.863Z,5.88
2022-08-14T21:37:53.376Z,8.90
2022-08-14T21:40:41.802Z,10.00
2022-08-14T21:43:18.084Z,7.57
2022-08-14T21:45:53.216Z,7.28
2022-08-14T21:48:29.431Z,8.15
2022-08-14T21:51:53.809Z,11.50
2022-08-14T21:53:58.991Z,6.63
2022-08-14T21:56:40.511Z,7.93
2022-08-14T21:59:17.658Z,10.88
2022-08-14T22:02:00.078Z,5.55
2022-08-14T22:04:40.496Z,6.07
2022-08-14T22:07:17.007Z,5.63
2022-08-14T22:09:55.109Z,5.22
2022-08-14T22:12:57.764Z,8.85
2022-08-14T22:15:17.925Z,6.78
2022-08-14T22:17:54.242Z,7.35
2022-08-14T22:20:28.053Z,5.65
2022-08-14T22:22:58.638Z,9.40
2022-08-14T22:25:33.236Z,6.00
2022-08-14T22:28:07.118Z,6.65
2022-08-14T22:30:38.930Z,4.25
2022-08-14T22:33:13.460Z,10.77
2022-08-14T22:35:42.960Z,8.70
2022-08-14T22:38:35.799Z,6.53
2022-08-14T22:41:25.464Z,7.15
2022-08-14T22:43:51.656Z,4.35
2022-08-14T22:46:21.908Z,3.83
2022-08-14T22:48:52.560Z,4.20
2022-08-14T22:51:23.500Z,4.45
2022-08-14T22:53:54.124Z,4.35
2022-08-14T22:56:29.171Z,4.60
2022-08-14T22:59:00.544Z,5.63
2022-08-14T23:01:55.584Z,7.18
2022-08-14T23:04:35.016Z,4.47
2022-08-14T23:09:56.219Z,4.75
2022-08-14T23:12:31.703Z,5.15
2022-08-14T23:15:03.963Z,5.30
2022-08-14T23:17:40.400Z,6.00
2022-08-14T23:20:19.373Z,6.18
2022-08-14T23:22:51.748Z,3.50
2022-08-14T23:25:58.066Z,5.43
2022-08-14T23:28:34.940Z,5.00
2022-08-14T23:31:08.514Z,6.15
2022-08-14T23:33:45.845Z,4.88
2022-08-14T23:36:32.869Z,4.22
2022-08-14T23:39:10.398Z,6.35
2022-08-14T23:41:53.153Z,7.00
2022-08-14T23:44:24.058Z,4.93
2022-08-14T23:46:56.962Z,8.90
2022-08-14T23:49:55.378Z,5.07
2022-08-14T23:52:51.161Z,5.25
2022-08-14T23:55:11.448Z,4.53
2022-08-14T23:57:44.012Z,4.97
